SALMON FALLS @ MILTON: From 03/08/2019 19:00 to 03/23/2019 05:00

Date STAGE [FT] FLOW [CFS] LAKE ELEVATION [FT] PRECIPITATION INCREMENT [IN] AIR TEMPERATURE [DEGF]
03/22/2019 22:00 3.37 -- 412.14 0.00 36.5
03/22/2019 21:00 3.36 176.7 412.13 0.00 35.3
03/22/2019 20:00 3.36 176.7 412.12 0.00 35.4
03/22/2019 19:00 3.34 170.3 412.12 0.00 35.6
03/22/2019 18:00 3.34 170.3 412.10 0.00 36.5
03/22/2019 17:00 3.33 167.2 412.09 0.00 38.6
03/22/2019 16:00 3.33 167.2 412.08 0.00 38.1
03/22/2019 15:00 3.33 167.2 412.08 0.00 36.6
03/22/2019 14:00 3.33 167.2 412.07 0.00 34.5
03/22/2019 13:00 3.31 161.0 412.05 0.00 34.0
03/22/2019 12:00 3.32 164.1 412.05 0.00 33.5
03/22/2019 11:00 3.31 161.0 412.04 0.00 33.8
03/22/2019 10:00 3.31 161.0 412.01 0.00 33.7
03/22/2019 09:00 3.30 158.0 412.02 0.00 33.5
03/22/2019 08:00 3.31 161.0 412.01 0.00 33.3
03/22/2019 07:00 3.30 158.0 411.99 0.00 33.9
03/22/2019 06:00 3.29 155.0 411.98 0.00 34.8
03/22/2019 05:00 3.30 158.0 412.00 0.00 34.9
03/22/2019 04:00 3.30 158.0 411.98 0.00 35.6
03/22/2019 03:00 3.30 158.0 411.98 0.00 35.5
03/22/2019 02:00 3.29 155.0 411.98 0.00 35.3
03/22/2019 01:00 3.29 155.0 411.98 0.00 35.7
03/22/2019 00:00 3.30 158.0 411.98 0.00 35.7
03/21/2019 23:00 3.30 158.0 411.98 0.00 35.2
03/21/2019 22:00 3.29 155.0 411.97 0.00 36.2
03/21/2019 21:00 3.29 155.0 411.96 0.00 37.6
03/21/2019 20:00 3.29 155.0 411.97 0.00 38.7
03/21/2019 19:00 3.29 155.0 411.96 0.00 40.2
03/21/2019 18:00 3.29 155.0 411.95 0.00 41.7
03/21/2019 17:00 3.29 155.0 411.96 0.00 42.9
03/21/2019 16:00 3.29 155.0 411.95 0.00 43.3
03/21/2019 15:00 3.29 155.0 411.97 0.00 44.4
03/21/2019 14:00 3.29 155.0 411.95 0.00 44.4
03/21/2019 13:00 3.29 155.0 411.96 0.00 46.5
03/21/2019 12:00 3.30 158.0 411.96 0.00 44.7
03/21/2019 11:00 3.29 155.0 411.96 0.00 41.3
03/21/2019 10:00 3.29 155.0 411.96 0.00 39.1
03/21/2019 09:00 3.29 155.0 411.96 0.00 34.2
03/21/2019 08:00 3.30 158.0 411.96 0.00 30.7
03/21/2019 07:00 3.30 158.0 411.97 0.00 26.2
03/21/2019 06:00 3.30 158.0 411.97 0.00 26.8
03/21/2019 05:00 3.29 155.0 411.96 0.00 27.4
03/21/2019 04:00 3.30 158.0 411.96 0.00 27.9
03/21/2019 03:00 3.29 155.0 411.97 0.00 27.9
03/21/2019 02:00 3.29 155.0 411.97 0.00 28.6
03/21/2019 01:00 3.29 155.0 411.97 0.00 28.4
03/21/2019 00:00 3.30 158.0 411.97 0.00 28.5
03/20/2019 23:00 3.29 155.0 411.97 0.00 28.3
03/20/2019 22:00 3.30 158.0 411.97 0.00 29.3
03/20/2019 21:00 3.30 158.0 411.97 0.00 31.5
03/20/2019 20:00 3.29 155.0 411.97 0.00 36.5
03/20/2019 19:00 3.29 155.0 411.97 0.00 38.5
03/20/2019 18:00 3.29 155.0 411.97 0.00 41.0
03/20/2019 17:00 3.30 158.0 411.98 0.00 44.7
03/20/2019 16:00 3.30 158.0 411.97 0.00 46.2
03/20/2019 15:00 3.30 158.0 411.98 0.00 46.4
03/20/2019 14:00 3.30 158.0 411.98 0.00 44.4
03/20/2019 13:00 3.29 155.0 411.97 0.00 43.5
03/20/2019 12:00 3.30 158.0 411.97 0.00 40.8
03/20/2019 11:00 3.30 158.0 411.97 0.00 37.6
03/20/2019 10:00 3.29 155.0 411.97 0.00 33.9
03/20/2019 09:00 3.30 158.0 411.97 0.00 22.8
03/20/2019 08:00 3.30 158.0 411.98 0.00 16.3
03/20/2019 07:00 3.30 158.0 411.99 0.00 14.2
03/20/2019 06:00 3.30 158.0 411.98 0.00 15.2
03/20/2019 05:00 3.30 158.0 411.99 0.00 15.8
03/20/2019 04:00 3.30 158.0 411.99 0.00 17.2
03/20/2019 03:00 3.30 158.0 411.99 0.00 18.1
03/20/2019 02:00 3.30 158.0 411.99 0.00 19.3
03/20/2019 01:00 3.30 158.0 411.99 0.00 20.9
03/20/2019 00:00 3.30 158.0 411.99 0.00 22.2
03/19/2019 23:00 3.31 161.0 412.00 0.00 23.9
03/19/2019 22:00 3.30 158.0 411.99 0.00 25.6
03/19/2019 21:00 3.30 158.0 412.00 0.00 27.4
03/19/2019 20:00 3.30 158.0 412.00 0.00 30.6
03/19/2019 19:00 3.30 158.0 412.00 0.00 34.0
03/19/2019 18:00 3.30 158.0 411.98 0.00 36.2
03/19/2019 17:00 3.30 158.0 411.99 0.00 37.9
03/19/2019 16:00 3.30 158.0 412.00 0.00 38.1
03/19/2019 15:00 3.30 158.0 411.99 0.00 37.5
03/19/2019 14:00 3.30 158.0 412.02 0.00 36.3
03/19/2019 13:00 3.31 161.0 411.99 0.00 35.1
03/19/2019 12:00 3.30 158.0 411.99 0.00 34.8
03/19/2019 11:00 3.30 158.0 412.00 0.00 33.8
03/19/2019 10:00 3.31 161.0 412.00 0.00 31.9
03/19/2019 09:00 3.30 158.0 411.99 0.00 24.9
03/19/2019 08:00 3.30 158.0 412.00 0.00 19.9
03/19/2019 07:00 3.30 158.0 412.00 0.00 18.6
03/19/2019 06:00 3.31 161.0 412.00 0.00 18.0
03/19/2019 05:00 3.30 158.0 412.00 0.00 18.1
03/19/2019 04:00 3.30 158.0 412.00 0.00 19.3
03/19/2019 03:00 3.30 158.0 412.00 0.00 20.9
03/19/2019 02:00 3.30 158.0 412.00 0.00 23.0
03/19/2019 01:00 3.30 158.0 411.99 0.00 23.6
03/19/2019 00:00 3.30 158.0 411.99 0.00 23.3
03/18/2019 23:00 3.30 158.0 411.99 0.00 23.7
03/18/2019 22:00 3.30 158.0 411.99 0.00 25.4
03/18/2019 21:00 3.30 158.0 411.99 0.00 27.2
03/18/2019 20:00 3.30 158.0 411.98 0.00 28.9
03/18/2019 19:00 3.30 158.0 411.98 0.00 32.4
03/18/2019 18:00 3.30 158.0 411.99 0.00 34.6
03/18/2019 17:00 3.30 158.0 411.97 0.00 36.1
03/18/2019 16:00 3.29 155.0 411.98 0.00 35.3
03/18/2019 15:00 3.29 155.0 411.96 0.00 33.9
03/18/2019 14:00 3.30 158.0 411.98 0.00 33.2
03/18/2019 13:00 3.29 155.0 411.97 0.00 31.1
03/18/2019 12:00 3.29 155.0 411.94 0.00 30.1
03/18/2019 11:00 3.29 155.0 411.96 0.00 28.5
03/18/2019 10:00 3.29 155.0 411.94 0.00 27.6
03/18/2019 09:00 3.28 152.1 411.94 0.00 27.2
03/18/2019 08:00 3.29 155.0 411.94 0.00 24.4
03/18/2019 07:00 3.28 152.1 411.93 0.00 19.4
03/18/2019 06:00 3.28 152.1 411.92 0.00 19.5
03/18/2019 05:00 3.28 152.1 411.93 0.00 20.7
03/18/2019 04:00 3.28 152.1 411.92 0.00 20.1
03/18/2019 03:00 3.27 149.2 411.91 0.00 21.3
03/18/2019 02:00 3.27 149.2 411.91 0.00 21.9
03/18/2019 01:00 3.27 149.2 411.89 0.00 23.5
03/18/2019 00:00 3.27 149.2 411.89 0.00 25.7
03/17/2019 23:00 3.26 146.3 411.88 0.00 26.7
03/17/2019 22:00 3.26 146.3 411.87 0.00 27.3
03/17/2019 21:00 3.26 146.3 411.86 0.00 27.5
03/17/2019 20:00 3.25 143.5 411.85 0.00 28.0
03/17/2019 19:00 3.25 143.5 411.85 0.00 30.0
03/17/2019 18:00 3.25 143.5 411.85 0.00 31.4
03/17/2019 17:00 3.25 143.5 411.83 0.00 33.1
03/17/2019 16:00 3.25 143.5 411.81 0.00 32.5
03/17/2019 15:00 3.24 140.7 411.81 0.00 32.5
03/17/2019 14:00 3.23 138.0 411.77 0.00 31.9
03/17/2019 13:00 3.22 135.3 411.76 0.00 29.6
03/17/2019 12:00 3.23 138.0 411.79 0.00 29.8
03/17/2019 11:00 3.22 135.3 411.75 0.00 29.4
03/17/2019 10:00 3.23 138.0 411.76 0.00 28.7
03/17/2019 09:00 3.22 135.3 411.73 0.00 28.6
03/17/2019 08:00 3.21 132.6 411.71 0.00 26.6
03/17/2019 07:00 3.21 132.6 411.71 0.00 25.4
03/17/2019 06:00 3.20 130.0 411.69 0.00 26.3
03/17/2019 05:00 3.19 127.4 411.68 0.00 28.5
03/17/2019 04:00 3.19 127.4 411.68 0.00 29.3
03/17/2019 03:00 3.19 127.4 411.66 0.00 28.9
03/17/2019 02:00 3.19 127.4 411.64 0.00 28.5
03/17/2019 01:00 3.18 124.9 411.63 0.00 30.7
03/17/2019 00:00 3.18 124.9 411.61 0.00 30.9
03/16/2019 23:00 3.17 122.4 411.61 0.00 31.3
03/16/2019 22:00 3.17 122.4 411.58 0.00 32.5
03/16/2019 21:00 3.15 117.6 411.57 0.00 33.7
03/16/2019 20:00 3.15 117.6 411.57 0.00 35.1
03/16/2019 19:00 3.14 115.2 411.55 0.00 36.5
03/16/2019 18:00 3.13 112.8 411.51 0.00 38.1
03/16/2019 17:00 3.13 112.8 411.52 0.00 40.6
03/16/2019 16:00 3.13 112.8 411.52 0.00 40.7
03/16/2019 15:00 3.13 112.8 411.46 0.00 42.1
03/16/2019 14:00 3.12 110.5 411.46 0.00 43.1
03/16/2019 13:00 3.12 110.5 411.49 0.00 44.1
03/16/2019 12:00 3.11 108.2 411.43 0.00 44.3
03/16/2019 11:00 3.10 106.0 411.44 0.00 46.1
03/16/2019 10:00 3.11 108.2 411.39 0.00 44.8
03/16/2019 09:00 3.10 106.0 411.39 0.00 43.8
03/16/2019 08:00 3.10 106.0 411.39 0.00 42.6
03/16/2019 07:00 3.09 103.7 411.37 0.00 41.0
03/16/2019 06:00 3.10 106.0 411.37 0.00 41.7
03/16/2019 05:00 3.08 101.5 411.35 0.00 43.7
03/16/2019 04:00 3.08 101.5 411.35 0.00 44.4
03/16/2019 03:00 3.09 103.7 411.34 0.00 47.9
03/16/2019 02:00 3.08 101.5 411.33 0.00 48.1
03/16/2019 01:00 3.07 99.3 411.32 0.00 46.8
03/16/2019 00:00 3.07 99.3 411.31 0.00 37.2
03/15/2019 23:00 3.07 99.3 411.31 0.00 37.1
03/15/2019 22:00 3.06 97.2 411.29 0.00 36.0
03/15/2019 21:00 3.06 97.2 411.28 0.00 38.0
03/15/2019 20:00 3.06 97.2 411.27 0.00 39.9
03/15/2019 19:00 3.05 95.0 411.27 0.00 45.8
03/15/2019 18:00 3.07 99.3 411.25 0.00 54.1
03/15/2019 17:00 3.06 97.2 411.24 0.00 60.6
03/15/2019 16:00 3.04 92.9 411.24 0.00 59.8
03/15/2019 15:00 3.04 92.9 411.23 0.00 58.5
03/15/2019 14:00 3.05 95.0 411.23 0.00 51.1
03/15/2019 13:00 3.04 92.9 411.24 0.00 44.5
03/15/2019 12:00 3.05 95.0 411.22 0.00 44.1
03/15/2019 11:00 3.03 90.9 411.22 0.00 42.4
03/15/2019 10:00 3.04 92.9 411.22 0.00 41.2
03/15/2019 09:00 3.05 95.0 411.97 0.00 36.0
03/15/2019 08:00 3.04 92.9 411.22 0.00 34.8
03/15/2019 07:00 3.05 95.0 411.21 0.00 35.2
03/15/2019 06:00 3.04 92.9 411.20 0.00 36.5
03/15/2019 05:00 3.05 95.0 411.21 0.00 34.7
03/15/2019 04:00 3.05 95.0 411.21 0.00 37.1
03/15/2019 03:00 3.04 92.9 411.21 0.00 37.0
03/15/2019 02:00 3.05 95.0 411.21 0.00 37.3
03/15/2019 01:00 3.04 92.9 411.21 0.00 32.3
03/15/2019 00:00 3.04 92.9 411.21 0.00 31.3
03/14/2019 23:00 3.04 92.9 411.22 0.00 31.6
03/14/2019 22:00 3.05 95.0 411.21 0.00 33.0
03/14/2019 21:00 3.04 92.9 411.21 0.00 35.6
03/14/2019 20:00 3.05 95.0 411.21 0.00 38.4
03/14/2019 19:00 3.05 95.0 411.21 0.00 40.0
03/14/2019 18:00 3.04 92.9 411.20 0.00 41.4
03/14/2019 17:00 3.04 92.9 411.21 0.00 42.5
03/14/2019 16:00 3.05 95.0 411.21 0.00 43.6
03/14/2019 15:00 3.05 95.0 411.21 0.00 44.3
03/14/2019 14:00 3.04 92.9 411.21 0.00 43.4
03/14/2019 13:00 3.04 92.9 411.21 0.00 42.2
03/14/2019 12:00 3.04 92.9 411.21 0.00 40.6
03/14/2019 11:00 3.05 95.0 411.22 0.00 37.9
03/14/2019 10:00 3.04 92.9 411.21 0.00 34.3
03/14/2019 09:00 3.04 92.9 411.22 0.00 32.4
03/14/2019 08:00 3.05 95.0 411.22 0.00 30.8
03/14/2019 07:00 3.04 92.9 411.22 0.00 29.8
03/14/2019 06:00 3.06 97.2 411.22 0.00 29.2
03/14/2019 05:00 3.05 95.0 411.23 0.00 30.8
03/14/2019 04:00 3.04 92.9 411.23 0.00 31.2
03/14/2019 03:00 3.05 95.0 411.22 0.00 31.1
03/14/2019 02:00 3.06 97.2 411.23 0.00 31.3
03/14/2019 01:00 3.05 95.0 411.23 0.00 31.7
03/14/2019 00:00 3.05 95.0 411.24 0.00 31.7
03/13/2019 23:00 3.04 92.9 411.23 0.00 32.2
03/13/2019 22:00 3.05 95.0 411.23 0.00 33.4
03/13/2019 21:00 3.06 97.2 411.23 0.00 33.7
03/13/2019 20:00 3.05 95.0 411.23 0.00 34.1
03/13/2019 19:00 3.06 97.2 411.23 0.00 34.9
03/13/2019 18:00 3.04 92.9 411.24 0.00 35.6
03/13/2019 17:00 3.06 97.2 411.23 0.00 37.4
03/13/2019 16:00 3.06 97.2 411.23 0.00 39.5
03/13/2019 15:00 3.06 97.2 411.24 0.00 40.2
03/13/2019 14:00 3.05 95.0 411.23 0.00 39.0
03/13/2019 13:00 3.05 95.0 411.23 0.00 37.5
03/13/2019 12:00 3.05 95.0 411.23 0.00 36.8
03/13/2019 11:00 3.05 95.0 411.24 0.00 35.0
03/13/2019 10:00 3.06 97.2 411.24 0.00 31.5
03/13/2019 09:00 3.05 95.0 411.24 0.00 22.9
03/13/2019 08:00 3.06 97.2 411.24 0.00 16.4
03/13/2019 07:00 3.06 97.2 411.25 0.00 15.3
03/13/2019 06:00 3.05 95.0 411.24 0.00 17.3
03/13/2019 05:00 3.06 97.2 411.25 0.00 18.2
03/13/2019 04:00 3.05 95.0 411.25 0.00 21.3
03/13/2019 03:00 3.05 95.0 411.24 0.00 22.2
03/13/2019 02:00 3.06 97.2 411.24 0.00 23.9
03/13/2019 01:00 3.05 95.0 411.25 0.00 27.0
03/13/2019 00:00 3.07 99.3 411.25 0.00 28.0
03/12/2019 23:00 3.07 99.3 411.24 0.00 29.1
03/12/2019 22:00 3.07 99.3 411.24 0.00 30.0
03/12/2019 21:00 3.06 97.2 411.25 0.00 31.5
03/12/2019 20:00 3.05 95.0 411.26 0.00 32.7
03/12/2019 19:00 3.05 95.0 411.25 0.00 34.5
03/12/2019 18:00 3.07 99.3 411.25 0.00 36.3
03/12/2019 17:00 3.05 95.0 411.25 0.00 38.0
03/12/2019 16:00 3.06 97.2 411.25 0.00 38.0
03/12/2019 15:00 3.05 95.0 411.28 0.00 37.5
03/12/2019 14:00 3.05 95.0 411.29 0.00 36.6
03/12/2019 13:00 3.05 95.0 411.25 0.00 36.0
03/12/2019 12:00 3.05 95.0 411.26 0.00 34.6
03/12/2019 11:00 3.07 99.3 411.24 0.00 33.4
03/12/2019 10:00 3.05 95.0 411.25 0.00 32.4
03/12/2019 09:00 3.07 99.3 411.25 0.00 31.1
03/12/2019 08:00 3.06 97.2 411.27 0.00 29.2
03/12/2019 07:00 3.06 97.2 411.26 0.00 29.0
03/12/2019 06:00 3.06 97.2 411.25 0.00 29.5
03/12/2019 05:00 3.06 97.2 411.25 0.00 30.4
03/12/2019 04:00 3.05 95.0 411.23 0.00 31.7
03/12/2019 03:00 3.06 97.2 411.25 0.00 32.1
03/12/2019 02:00 3.06 97.2 411.27 0.00 33.2
03/12/2019 01:00 3.06 97.2 411.27 0.00 33.3
03/12/2019 00:00 3.07 99.3 411.27 0.00 33.3
03/11/2019 23:00 3.07 99.3 411.25 0.00 33.8
03/11/2019 22:00 3.06 97.2 411.26 0.00 34.8
03/11/2019 21:00 3.07 99.3 411.28 0.00 36.1
03/11/2019 20:00 3.06 97.2 411.25 0.00 37.6
03/11/2019 19:00 3.06 97.2 411.27 0.00 38.9
03/11/2019 18:00 3.07 99.3 411.27 0.00 40.3
03/11/2019 17:00 3.06 97.2 411.27 0.00 42.2
03/11/2019 16:00 3.06 97.2 411.30 0.00 42.3
03/11/2019 15:00 3.07 99.3 411.28 0.00 42.5
03/11/2019 14:00 3.07 99.3 411.27 0.00 43.3
03/11/2019 13:00 3.08 101.5 411.28 0.00 42.2
03/11/2019 12:00 3.07 99.3 411.25 0.00 41.5
03/11/2019 11:00 3.07 99.3 411.27 0.00 40.5
03/11/2019 10:00 3.06 97.2 411.27 0.00 38.4
03/11/2019 09:00 3.06 97.2 411.27 0.00 35.3
03/11/2019 08:00 3.07 99.3 411.27 0.00 34.4
03/11/2019 07:00 3.07 99.3 411.28 0.00 31.7
03/11/2019 06:00 3.07 99.3 411.27 0.00 32.9
03/11/2019 05:00 3.06 97.2 411.27 0.00 31.4
03/11/2019 04:00 3.05 95.0 411.27 0.00 33.3
03/11/2019 03:00 3.07 99.3 411.28 0.00 34.2
03/11/2019 02:00 3.06 97.2 411.28 0.00 33.7
03/11/2019 01:00 3.07 99.3 411.29 0.00 32.3
03/11/2019 00:00 3.07 99.3 411.28 0.00 32.3
03/10/2019 23:00 3.08 101.5 411.30 0.00 32.0
03/10/2019 22:00 3.08 101.5 411.28 0.00 32.4
03/10/2019 21:00 3.07 99.3 411.29 0.00 34.9
03/10/2019 20:00 3.07 99.3 411.29 0.00 34.2
03/10/2019 19:00 3.08 101.5 411.30 0.00 33.3
03/10/2019 18:00 3.07 99.3 411.28 0.00 32.8
03/10/2019 17:00 3.07 99.3 411.28 0.00 32.2
03/10/2019 16:00 3.07 99.3 411.27 0.00 31.9
03/10/2019 15:00 3.06 97.2 411.27 0.00 31.6
03/10/2019 14:00 3.06 97.2 411.27 0.00 30.9
03/10/2019 13:00 3.06 97.2 411.27 0.00 29.6
03/10/2019 12:00 3.07 99.3 411.27 0.00 28.4
03/10/2019 11:00 3.07 99.3 411.25 0.00 28.0
03/10/2019 10:00 3.07 99.3 411.26 0.00 29.1
03/10/2019 09:00 3.06 97.2 411.26 0.00 27.7
03/10/2019 08:00 3.07 99.3 411.26 0.00 25.3
03/10/2019 07:00 3.08 101.5 411.26 0.00 25.6
03/10/2019 06:00 3.08 101.5 411.27 0.00 24.5
03/10/2019 05:00 3.08 101.5 411.26 0.00 22.8
03/10/2019 04:00 3.08 101.5 411.27 0.00 24.5
03/10/2019 03:00 3.07 99.3 411.27 0.00 19.5
03/10/2019 02:00 3.07 99.3 411.28 0.00 18.0
03/10/2019 01:00 3.07 99.3 411.28 0.00 18.0
03/10/2019 00:00 3.07 99.3 411.28 0.00 18.9
03/09/2019 23:00 3.07 99.3 411.29 0.00 20.7
03/09/2019 22:00 3.07 99.3 411.28 0.00 23.8
03/09/2019 21:00 3.07 99.3 411.28 0.00 21.9
03/09/2019 20:00 3.07 99.3 411.29 0.00 25.8
03/09/2019 19:00 3.08 101.5 411.28 0.00 30.1
03/09/2019 18:00 3.06 97.2 411.29 0.00 33.2
03/09/2019 17:00 3.07 99.3 411.29 0.00 38.9
03/09/2019 16:00 3.08 101.5 411.29 0.00 42.1
03/09/2019 15:00 3.08 101.5 411.29 0.00 41.3
03/09/2019 14:00 3.08 101.5 411.30 0.00 40.7
03/09/2019 13:00 3.07 99.3 411.30 0.00 38.9
03/09/2019 12:00 3.09 103.7 411.31 0.00 38.0
03/09/2019 11:00 3.09 103.7 411.30 0.00 36.0
03/09/2019 10:00 3.09 103.7 411.30 0.00 34.0
03/09/2019 09:00 3.08 101.5 411.31 0.00 32.9
03/09/2019 08:00 3.08 101.5 411.30 0.00 18.7
03/09/2019 07:00 3.08 101.5 411.30 0.00 10.8
03/09/2019 06:00 3.08 101.5 411.31 0.00 15.7
03/09/2019 05:00 3.08 101.5 411.32 0.00 18.1
03/09/2019 04:00 3.09 103.7 411.32 0.00 24.3
03/09/2019 03:00 3.07 99.3 411.32 0.00 17.6
03/09/2019 02:00 3.09 103.7 411.32 0.00 11.6
03/09/2019 01:00 3.08 101.5 411.31 0.00 13.5
03/09/2019 00:00 3.09 103.7 411.32 0.00 18.6
03/08/2019 23:00 -- -- -- -- --
03/08/2019 22:00 -- -- -- -- --
03/08/2019 21:00 -- -- -- -- --
03/08/2019 20:00 -- -- -- -- --
03/08/2019 19:00 -- -- -- -- --